sensor_id;sensor_type;location;lat;lon;timestamp;temperature;humidity
25050;DHT22;13046;49.814;9.918;2022-07-29T00:07:09;21.30;99.70
25050;DHT22;13046;49.814;9.918;2022-07-29T00:09:35;21.20;99.80
25050;DHT22;13046;49.814;9.918;2022-07-29T00:12:01;21.20;99.90
25050;DHT22;13046;49.814;9.918;2022-07-29T00:14:27;21.20;99.90
25050;DHT22;13046;49.814;9.918;2022-07-29T00:16:53;21.20;99.90
25050;DHT22;13046;49.814;9.918;2022-07-29T00:19:19;21.10;99.90
25050;DHT22;13046;49.814;9.918;2022-07-29T00:21:45;21.10;99.90
25050;DHT22;13046;49.814;9.918;2022-07-29T00:24:11;21.00;99.90
25050;DHT22;13046;49.814;9.918;2022-07-29T00:26:36;21.00;99.90
25050;DHT22;13046;49.814;9.918;2022-07-29T00:29:03;20.90;99.90
25050;DHT22;13046;49.814;9.918;2022-07-29T00:31:29;20.80;99.90
25050;DHT22;13046;49.814;9.918;2022-07-29T00:33:55;20.80;99.90
25050;DHT22;13046;49.814;9.918;2022-07-29T00:36:21;20.70;99.90
25050;DHT22;13046;49.814;9.918;2022-07-29T00:38:48;20.60;99.90
25050;DHT22;13046;49.814;9.918;2022-07-29T00:41:14;20.40;99.90
25050;DHT22;13046;49.814;9.918;2022-07-29T00:43:40;20.40;99.90
25050;DHT22;13046;49.814;9.918;2022-07-29T00:46:06;20.40;99.90
25050;DHT22;13046;49.814;9.918;2022-07-29T00:48:32;20.30;99.90
25050;DHT22;13046;49.814;9.918;2022-07-29T00:50:58;20.30;99.90
25050;DHT22;13046;49.814;9.918;2022-07-29T00:53:25;20.20;99.90
25050;DHT22;13046;49.814;9.918;2022-07-29T00:55:51;20.10;99.90
25050;DHT22;13046;49.814;9.918;2022-07-29T00:58:18;20.00;99.90
25050;DHT22;13046;49.814;9.918;2022-07-29T01:00:44;19.90;99.90
25050;DHT22;13046;49.814;9.918;2022-07-29T01:03:10;19.80;99.90
25050;DHT22;13046;49.814;9.918;2022-07-29T01:08:02;19.80;99.90
25050;DHT22;13046;49.814;9.918;2022-07-29T01:12:57;19.70;99.90
25050;DHT22;13046;49.814;9.918;2022-07-29T01:30:51;19.20;99.90
25050;DHT22;13046;49.814;9.918;2022-07-29T01:33:20;19.10;99.90
25050;DHT22;13046;49.814;9.918;2022-07-29T01:36:13;19.00;99.90
25050;DHT22;13046;49.814;9.918;2022-07-29T01:41:09;19.00;99.90
25050;DHT22;13046;49.814;9.918;2022-07-29T01:43:42;18.90;99.90
25050;DHT22;13046;49.814;9.918;2022-07-29T01:46:13;18.80;99.90
25050;DHT22;13046;49.814;9.918;2022-07-29T01:48:52;18.70;99.90
25050;DHT22;13046;49.814;9.918;2022-07-29T01:51:21;18.70;99.90
25050;DHT22;13046;49.814;9.918;2022-07-29T02:28:17;18.60;99.90
25050;DHT22;13046;49.814;9.918;2022-07-29T02:30:45;18.20;99.90
25050;DHT22;13046;49.814;9.918;2022-07-29T02:33:14;18.10;99.90
25050;DHT22;13046;49.814;9.918;2022-07-29T02:35:41;18.10;99.90
25050;DHT22;13046;49.814;9.918;2022-07-29T02:38:09;18.00;99.90
25050;DHT22;13046;49.814;9.918;2022-07-29T02:40:56;18.00;99.90
25050;DHT22;13046;49.814;9.918;2022-07-29T02:43:24;18.00;99.90
25050;DHT22;13046;49.814;9.918;2022-07-29T02:45:52;18.00;99.90
25050;DHT22;13046;49.814;9.918;2022-07-29T02:48:24;18.00;99.90
25050;DHT22;13046;49.814;9.918;2022-07-29T02:50:57;18.00;99.90
25050;DHT22;13046;49.814;9.918;2022-07-29T02:53:27;17.90;99.90
25050;DHT22;13046;49.814;9.918;2022-07-29T02:56:01;17.90;99.90
25050;DHT22;13046;49.814;9.918;2022-07-29T02:58:32;17.90;99.90
25050;DHT22;13046;49.814;9.918;2022-07-29T03:01:03;17.80;99.90
25050;DHT22;13046;49.814;9.918;2022-07-29T03:03:34;17.80;99.90
25050;DHT22;13046;49.814;9.918;2022-07-29T03:06:01;17.80;99.90
25050;DHT22;13046;49.814;9.918;2022-07-29T03:08:27;17.70;99.90
25050;DHT22;13046;49.814;9.918;2022-07-29T03:10:54;17.70;99.90
25050;DHT22;13046;49.814;9.918;2022-07-29T03:13:20;17.70;99.90
25050;DHT22;13046;49.814;9.918;2022-07-29T03:15:47;17.70;99.90
25050;DHT22;13046;49.814;9.918;2022-07-29T03:18:13;17.70;99.90
25050;DHT22;13046;49.814;9.918;2022-07-29T03:20:39;17.70;99.90
25050;DHT22;13046;49.814;9.918;2022-07-29T03:23:06;17.60;99.90
25050;DHT22;13046;49.814;9.918;2022-07-29T03:25:31;17.60;99.90
25050;DHT22;13046;49.814;9.918;2022-07-29T03:27:57;17.60;99.90
25050;DHT22;13046;49.814;9.918;2022-07-29T03:30:23;17.60;99.90
25050;DHT22;13046;49.814;9.918;2022-07-29T03:32:50;17.50;99.90
25050;DHT22;13046;49.814;9.918;2022-07-29T03:35:16;17.60;99.90
25050;DHT22;13046;49.814;9.918;2022-07-29T03:37:43;17.60;99.90
25050;DHT22;13046;49.814;9.918;2022-07-29T03:40:12;17.60;99.90
25050;DHT22;13046;49.814;9.918;2022-07-29T03:42:40;17.50;99.90
25050;DHT22;13046;49.814;9.918;2022-07-29T03:45:10;17.50;99.90
25050;DHT22;13046;49.814;9.918;2022-07-29T03:47:40;17.40;99.90
25050;DHT22;13046;49.814;9.918;2022-07-29T03:50:11;17.30;99.90
25050;DHT22;13046;49.814;9.918;2022-07-29T03:52:38;17.40;99.90
25050;DHT22;13046;49.814;9.918;2022-07-29T03:55:05;17.40;99.90
25050;DHT22;13046;49.814;9.918;2022-07-29T03:57:32;17.40;99.90
25050;DHT22;13046;49.814;9.918;2022-07-29T03:59:59;17.40;99.90
25050;DHT22;13046;49.814;9.918;2022-07-29T04:02:26;17.40;99.90
25050;DHT22;13046;49.814;9.918;2022-07-29T04:04:52;17.40;99.90
25050;DHT22;13046;49.814;9.918;2022-07-29T04:07:18;17.40;99.90
25050;DHT22;13046;49.814;9.918;2022-07-29T04:09:44;17.40;99.90
25050;DHT22;13046;49.814;9.918;2022-07-29T04:12:10;17.40;99.90
25050;DHT22;13046;49.814;9.918;2022-07-29T04:14:36;17.40;99.90
25050;DHT22;13046;49.814;9.918;2022-07-29T04:17:03;17.40;99.90
25050;DHT22;13046;49.814;9.918;2022-07-29T04:19:30;17.50;99.90
25050;DHT22;13046;49.814;9.918;2022-07-29T04:21:58;17.50;99.90
25050;DHT22;13046;49.814;9.918;2022-07-29T04:24:24;17.50;99.90
25050;DHT22;13046;49.814;9.918;2022-07-29T04:26:50;17.50;99.90
25050;DHT22;13046;49.814;9.918;2022-07-29T04:29:16;17.60;99.90
25050;DHT22;13046;49.814;9.918;2022-07-29T04:31:42;17.60;99.90
25050;DHT22;13046;49.814;9.918;2022-07-29T04:34:08;17.60;99.90
25050;DHT22;13046;49.814;9.918;2022-07-29T04:36:34;17.60;99.90
25050;DHT22;13046;49.814;9.918;2022-07-29T04:39:00;17.60;99.90
25050;DHT22;13046;49.814;9.918;2022-07-29T04:41:29;17.50;99.90
25050;DHT22;13046;49.814;9.918;2022-07-29T04:43:55;17.50;99.90
25050;DHT22;13046;49.814;9.918;2022-07-29T04:46:21;17.60;99.90
25050;DHT22;13046;49.814;9.918;2022-07-29T04:48:47;17.60;99.90
25050;DHT22;13046;49.814;9.918;2022-07-29T04:51:14;17.60;99.90
25050;DHT22;13046;49.814;9.918;2022-07-29T04:53:40;17.60;99.90
25050;DHT22;13046;49.814;9.918;2022-07-29T04:56:05;17.60;99.90
25050;DHT22;13046;49.814;9.918;2022-07-29T04:58:32;17.60;99.90
25050;DHT22;13046;49.814;9.918;2022-07-29T05:00:59;17.60;99.90
25050;DHT22;13046;49.814;9.918;2022-07-29T05:03:24;17.60;99.90
25050;DHT22;13046;49.814;9.918;2022-07-29T05:05:50;17.70;99.90
25050;DHT22;13046;49.814;9.918;2022-07-29T05:08:16;17.70;99.90
25050;DHT22;13046;49.814;9.918;2022-07-29T05:10:41;17.80;99.90
25050;DHT22;13046;49.814;9.918;2022-07-29T05:13:07;17.80;99.90
25050;DHT22;13046;49.814;9.918;2022-07-29T05:15:34;17.80;99.90
25050;DHT22;13046;49.814;9.918;2022-07-29T05:18:00;17.80;99.90
25050;DHT22;13046;49.814;9.918;2022-07-29T05:20:27;17.90;99.90
25050;DHT22;13046;49.814;9.918;2022-07-29T05:22:58;18.00;99.90
25050;DHT22;13046;49.814;9.918;2022-07-29T05:25:25;18.10;99.90
25050;DHT22;13046;49.814;9.918;2022-07-29T05:27:51;18.20;99.90
25050;DHT22;13046;49.814;9.918;2022-07-29T05:30:17;18.30;99.90
25050;DHT22;13046;49.814;9.918;2022-07-29T05:32:42;18.50;99.90
25050;DHT22;13046;49.814;9.918;2022-07-29T05:35:08;18.70;99.90
25050;DHT22;13046;49.814;9.918;2022-07-29T05:37:34;18.80;99.90
25050;DHT22;13046;49.814;9.918;2022-07-29T05:49:44;18.90;99.90
25050;DHT22;13046;49.814;9.918;2022-07-29T06:09:16;19.50;99.90
25050;DHT22;13046;49.814;9.918;2022-07-29T06:11:41;19.90;99.90
25050;DHT22;13046;49.814;9.918;2022-07-29T06:14:07;20.10;99.90
25050;DHT22;13046;49.814;9.918;2022-07-29T06:16:32;20.40;99.90
25050;DHT22;13046;49.814;9.918;2022-07-29T06:21:24;20.50;99.90
25050;DHT22;13046;49.814;9.918;2022-07-29T06:23:50;20.80;99.90
25050;DHT22;13046;49.814;9.918;2022-07-29T06:26:15;20.80;99.90
25050;DHT22;13046;49.814;9.918;2022-07-29T06:28:41;20.90;99.90
25050;DHT22;13046;49.814;9.918;2022-07-29T06:31:07;20.90;99.90
25050;DHT22;13046;49.814;9.918;2022-07-29T06:33:32;21.00;99.90
25050;DHT22;13046;49.814;9.918;2022-07-29T06:58:14;21.20;99.90
25050;DHT22;13046;49.814;9.918;2022-07-29T07:05:33;23.10;99.90
25050;DHT22;13046;49.814;9.918;2022-07-29T07:07:59;23.80;99.90
25050;DHT22;13046;49.814;9.918;2022-07-29T07:10:25;24.00;99.90
25050;DHT22;13046;49.814;9.918;2022-07-29T07:12:51;24.40;99.90
25050;DHT22;13046;49.814;9.918;2022-07-29T07:15:16;24.50;99.90
25050;DHT22;13046;49.814;9.918;2022-07-29T07:17:42;24.70;99.90
25050;DHT22;13046;49.814;9.918;2022-07-29T07:20:08;24.90;99.90
25050;DHT22;13046;49.814;9.918;2022-07-29T07:22:34;25.10;99.90
25050;DHT22;13046;49.814;9.918;2022-07-29T07:24:59;25.30;99.90
25050;DHT22;13046;49.814;9.918;2022-07-29T07:27:25;25.50;99.90
25050;DHT22;13046;49.814;9.918;2022-07-29T07:29:51;25.50;99.90
25050;DHT22;13046;49.814;9.918;2022-07-29T07:32:17;25.70;99.90
25050;DHT22;13046;49.814;9.918;2022-07-29T07:34:43;25.30;99.90
25050;DHT22;13046;49.814;9.918;2022-07-29T07:37:09;25.00;99.90
25050;DHT22;13046;49.814;9.918;2022-07-29T07:39:34;24.80;99.90
25050;DHT22;13046;49.814;9.918;2022-07-29T07:42:00;24.70;99.90
25050;DHT22;13046;49.814;9.918;2022-07-29T07:44:27;24.70;99.90
25050;DHT22;13046;49.814;9.918;2022-07-29T07:46:52;24.60;99.90
25050;DHT22;13046;49.814;9.918;2022-07-29T07:49:18;24.80;99.90
25050;DHT22;13046;49.814;9.918;2022-07-29T07:51:43;25.20;99.90
25050;DHT22;13046;49.814;9.918;2022-07-29T09:00:33;25.90;99.90
25050;DHT22;13046;49.814;9.918;2022-07-29T09:03:02;28.00;98.40
25050;DHT22;13046;49.814;9.918;2022-07-29T09:05:29;27.70;98.80
25050;DHT22;13046;49.814;9.918;2022-07-29T09:10:21;27.50;99.20
25050;DHT22;13046;49.814;9.918;2022-07-29T09:50:20;26.90;99.70
25050;DHT22;13046;49.814;9.918;2022-07-29T09:52:52;25.50;99.90
25050;DHT22;13046;49.814;9.918;2022-07-29T09:55:19;25.30;99.90
25050;DHT22;13046;49.814;9.918;2022-07-29T09:57:45;25.20;99.90
25050;DHT22;13046;49.814;9.918;2022-07-29T10:00:14;25.30;99.90
25050;DHT22;13046;49.814;9.918;2022-07-29T10:02:42;25.30;99.90
25050;DHT22;13046;49.814;9.918;2022-07-29T10:05:24;25.20;99.90
25050;DHT22;13046;49.814;9.918;2022-07-29T10:07:55;25.20;99.90
25050;DHT22;13046;49.814;9.918;2022-07-29T10:10:25;25.40;99.90
25050;DHT22;13046;49.814;9.918;2022-07-29T10:13:03;25.30;99.90
25050;DHT22;13046;49.814;9.918;2022-07-29T10:15:31;25.30;99.90
25050;DHT22;13046;49.814;9.918;2022-07-29T10:18:04;25.20;99.90
25050;DHT22;13046;49.814;9.918;2022-07-29T10:20:30;25.10;99.90
25050;DHT22;13046;49.814;9.918;2022-07-29T10:22:56;25.00;99.90
25050;DHT22;13046;49.814;9.918;2022-07-29T10:25:23;24.70;99.90
25050;DHT22;13046;49.814;9.918;2022-07-29T10:27:49;24.60;99.90
25050;DHT22;13046;49.814;9.918;2022-07-29T10:30:20;24.50;99.90
25050;DHT22;13046;49.814;9.918;2022-07-29T10:38:30;24.50;99.90
25050;DHT22;13046;49.814;9.918;2022-07-29T10:41:33;24.80;99.90
25050;DHT22;13046;49.814;9.918;2022-07-29T10:44:20;25.10;99.90
25050;DHT22;13046;49.814;9.918;2022-07-29T10:46:46;25.40;99.90
25050;DHT22;13046;49.814;9.918;2022-07-29T10:49:13;25.80;99.90
25050;DHT22;13046;49.814;9.918;2022-07-29T10:54:19;26.10;99.90
25050;DHT22;13046;49.814;9.918;2022-07-29T10:56:44;26.30;99.90
25050;DHT22;13046;49.814;9.918;2022-07-29T11:01:49;26.70;99.90
25050;DHT22;13046;49.814;9.918;2022-07-29T11:17:06;27.20;99.90
25050;DHT22;13046;49.814;9.918;2022-07-29T11:19:33;29.50;99.90
25050;DHT22;13046;49.814;9.918;2022-07-29T11:21:59;28.90;99.30
25050;DHT22;13046;49.814;9.918;2022-07-29T11:24:27;28.70;99.90
25050;DHT22;13046;49.814;9.918;2022-07-29T11:27:12;28.30;99.90
25050;DHT22;13046;49.814;9.918;2022-07-29T11:32:16;28.40;99.90
25050;DHT22;13046;49.814;9.918;2022-07-29T11:34:44;28.80;99.90
25050;DHT22;13046;49.814;9.918;2022-07-29T11:39:49;29.60;98.20
25050;DHT22;13046;49.814;9.918;2022-07-29T11:45:19;29.70;98.10
25050;DHT22;13046;49.814;9.918;2022-07-29T11:47:52;30.00;97.70
25050;DHT22;13046;49.814;9.918;2022-07-29T11:50:32;30.40;98.30
25050;DHT22;13046;49.814;9.918;2022-07-29T11:52:58;31.20;96.00
25050;DHT22;13046;49.814;9.918;2022-07-29T11:55:25;31.20;95.90
25050;DHT22;13046;49.814;9.918;2022-07-29T11:57:51;30.20;95.30
25050;DHT22;13046;49.814;9.918;2022-07-29T12:02:54;29.50;96.80
25050;DHT22;13046;49.814;9.918;2022-07-29T12:05:21;30.00;96.60
25050;DHT22;13046;49.814;9.918;2022-07-29T12:07:47;29.90;96.10
25050;DHT22;13046;49.814;9.918;2022-07-29T12:10:14;29.60;96.20
25050;DHT22;13046;49.814;9.918;2022-07-29T12:12:39;29.30;98.00
25050;DHT22;13046;49.814;9.918;2022-07-29T12:15:16;29.40;98.10
25050;DHT22;13046;49.814;9.918;2022-07-29T12:17:43;28.90;97.50
25050;DHT22;13046;49.814;9.918;2022-07-29T12:20:09;29.00;97.60
25050;DHT22;13046;49.814;9.918;2022-07-29T12:22:37;28.90;98.30
25050;DHT22;13046;49.814;9.918;2022-07-29T12:25:12;29.20;98.80
25050;DHT22;13046;49.814;9.918;2022-07-29T12:27:40;29.40;97.20
25050;DHT22;13046;49.814;9.918;2022-07-29T12:30:11;29.70;96.70
25050;DHT22;13046;49.814;9.918;2022-07-29T12:35:22;30.30;96.40
25050;DHT22;13046;49.814;9.918;2022-07-29T12:37:48;30.10;96.30
25050;DHT22;13046;49.814;9.918;2022-07-29T12:40:17;29.80;96.70
25050;DHT22;13046;49.814;9.918;2022-07-29T12:43:06;29.30;97.70
25050;DHT22;13046;49.814;9.918;2022-07-29T12:45:36;28.80;97.40
25050;DHT22;13046;49.814;9.918;2022-07-29T12:48:02;28.60;97.70
25050;DHT22;13046;49.814;9.918;2022-07-29T12:50:28;28.50;98.20
25050;DHT22;13046;49.814;9.918;2022-07-29T12:52:54;28.40;98.70
25050;DHT22;13046;49.814;9.918;2022-07-29T12:55:44;28.30;98.70
25050;DHT22;13046;49.814;9.918;2022-07-29T12:58:10;28.20;99.00
25050;DHT22;13046;49.814;9.918;2022-07-29T13:00:36;28.00;99.00
25050;DHT22;13046;49.814;9.918;2022-07-29T13:03:02;27.80;99.70
25050;DHT22;13046;49.814;9.918;2022-07-29T13:05:42;27.70;99.30
25050;DHT22;13046;49.814;9.918;2022-07-29T13:08:12;27.60;99.70
25050;DHT22;13046;49.814;9.918;2022-07-29T13:10:38;27.40;99.60
25050;DHT22;13046;49.814;9.918;2022-07-29T13:13:09;27.30;99.90
25050;DHT22;13046;49.814;9.918;2022-07-29T13:15:41;27.20;99.90
25050;DHT22;13046;49.814;9.918;2022-07-29T13:18:31;27.10;99.90
25050;DHT22;13046;49.814;9.918;2022-07-29T13:21:11;26.90;99.90
25050;DHT22;13046;49.814;9.918;2022-07-29T13:23:37;26.60;99.90
25050;DHT22;13046;49.814;9.918;2022-07-29T13:26:10;26.30;99.90
25050;DHT22;13046;49.814;9.918;2022-07-29T13:28:37;26.00;99.90
25050;DHT22;13046;49.814;9.918;2022-07-29T13:31:02;25.10;99.90
25050;DHT22;13046;49.814;9.918;2022-07-29T13:33:29;24.60;99.90
25050;DHT22;13046;49.814;9.918;2022-07-29T13:35:55;24.10;99.90
25050;DHT22;13046;49.814;9.918;2022-07-29T13:38:21;23.90;99.90
25050;DHT22;13046;49.814;9.918;2022-07-29T13:40:47;24.00;99.90
25050;DHT22;13046;49.814;9.918;2022-07-29T13:43:12;24.00;99.90
25050;DHT22;13046;49.814;9.918;2022-07-29T13:45:38;23.90;99.90
25050;DHT22;13046;49.814;9.918;2022-07-29T13:48:04;23.90;99.90
25050;DHT22;13046;49.814;9.918;2022-07-29T13:50:30;23.90;99.90
25050;DHT22;13046;49.814;9.918;2022-07-29T13:52:55;23.90;99.90
25050;DHT22;13046;49.814;9.918;2022-07-29T13:55:21;23.90;99.90
25050;DHT22;13046;49.814;9.918;2022-07-29T13:57:47;23.80;99.90
25050;DHT22;13046;49.814;9.918;2022-07-29T14:00:13;23.70;99.90
25050;DHT22;13046;49.814;9.918;2022-07-29T14:02:40;23.40;99.90
25050;DHT22;13046;49.814;9.918;2022-07-29T14:05:06;23.20;99.90
25050;DHT22;13046;49.814;9.918;2022-07-29T14:07:32;23.10;99.90
25050;DHT22;13046;49.814;9.918;2022-07-29T14:09:58;23.10;99.90
25050;DHT22;13046;49.814;9.918;2022-07-29T14:12:24;23.00;99.90
25050;DHT22;13046;49.814;9.918;2022-07-29T14:14:49;23.20;99.90
25050;DHT22;13046;49.814;9.918;2022-07-29T14:17:15;23.00;99.90
25050;DHT22;13046;49.814;9.918;2022-07-29T14:19:41;23.00;99.90
25050;DHT22;13046;49.814;9.918;2022-07-29T14:22:08;23.10;99.90
25050;DHT22;13046;49.814;9.918;2022-07-29T14:24:34;23.00;99.90
25050;DHT22;13046;49.814;9.918;2022-07-29T14:27:00;23.20;99.90
25050;DHT22;13046;49.814;9.918;2022-07-29T14:29:26;23.30;99.90
25050;DHT22;13046;49.814;9.918;2022-07-29T14:31:52;23.20;99.90
25050;DHT22;13046;49.814;9.918;2022-07-29T14:34:18;23.00;99.90
25050;DHT22;13046;49.814;9.918;2022-07-29T14:36:43;23.10;99.90
25050;DHT22;13046;49.814;9.918;2022-07-29T14:39:09;23.10;99.90
25050;DHT22;13046;49.814;9.918;2022-07-29T14:41:35;23.10;99.90
25050;DHT22;13046;49.814;9.918;2022-07-29T14:44:00;23.00;99.90
25050;DHT22;13046;49.814;9.918;2022-07-29T14:46:27;22.90;99.90
25050;DHT22;13046;49.814;9.918;2022-07-29T14:48:53;23.00;99.90
25050;DHT22;13046;49.814;9.918;2022-07-29T14:51:19;22.90;99.90
25050;DHT22;13046;49.814;9.918;2022-07-29T14:53:44;22.80;99.90
25050;DHT22;13046;49.814;9.918;2022-07-29T14:56:10;22.80;99.90
25050;DHT22;13046;49.814;9.918;2022-07-29T14:58:36;22.70;99.90
25050;DHT22;13046;49.814;9.918;2022-07-29T15:01:03;22.60;99.90
25050;DHT22;13046;49.814;9.918;2022-07-29T15:03:29;22.50;99.90
25050;DHT22;13046;49.814;9.918;2022-07-29T15:05:54;22.60;99.90
25050;DHT22;13046;49.814;9.918;2022-07-29T15:08:21;22.60;99.90
25050;DHT22;13046;49.814;9.918;2022-07-29T15:10:46;22.60;99.90
25050;DHT22;13046;49.814;9.918;2022-07-29T15:13:12;22.50;99.90
25050;DHT22;13046;49.814;9.918;2022-07-29T15:15:38;22.50;99.90
25050;DHT22;13046;49.814;9.918;2022-07-29T15:18:04;22.40;99.90
25050;DHT22;13046;49.814;9.918;2022-07-29T15:20:30;22.30;99.90
25050;DHT22;13046;49.814;9.918;2022-07-29T15:22:56;22.10;99.90
25050;DHT22;13046;49.814;9.918;2022-07-29T15:25:22;22.20;99.90
25050;DHT22;13046;49.814;9.918;2022-07-29T15:27:48;22.10;99.90
25050;DHT22;13046;49.814;9.918;2022-07-29T15:30:14;22.10;99.90
25050;DHT22;13046;49.814;9.918;2022-07-29T15:32:43;22.00;99.90
25050;DHT22;13046;49.814;9.918;2022-07-29T15:35:08;21.90;99.90
25050;DHT22;13046;49.814;9.918;2022-07-29T15:37:36;21.80;99.90
25050;DHT22;13046;49.814;9.918;2022-07-29T15:40:04;21.70;99.90
25050;DHT22;13046;49.814;9.918;2022-07-29T15:42:29;21.70;99.90
25050;DHT22;13046;49.814;9.918;2022-07-29T15:44:55;21.60;99.90
25050;DHT22;13046;49.814;9.918;2022-07-29T15:47:21;21.60;99.90
25050;DHT22;13046;49.814;9.918;2022-07-29T15:49:46;21.50;99.90
25050;DHT22;13046;49.814;9.918;2022-07-29T15:52:12;21.50;99.90
25050;DHT22;13046;49.814;9.918;2022-07-29T15:54:39;21.50;99.90
25050;DHT22;13046;49.814;9.918;2022-07-29T15:57:07;21.40;99.90
25050;DHT22;13046;49.814;9.918;2022-07-29T15:59:33;21.40;99.90
25050;DHT22;13046;49.814;9.918;2022-07-29T16:02:02;21.50;99.90
25050;DHT22;13046;49.814;9.918;2022-07-29T16:04:31;21.40;99.90
25050;DHT22;13046;49.814;9.918;2022-07-29T16:06:57;21.30;99.90
25050;DHT22;13046;49.814;9.918;2022-07-29T16:09:23;21.20;99.90
25050;DHT22;13046;49.814;9.918;2022-07-29T16:11:49;21.30;99.90
25050;DHT22;13046;49.814;9.918;2022-07-29T16:14:18;21.40;99.90
25050;DHT22;13046;49.814;9.918;2022-07-29T16:16:44;21.50;99.90
25050;DHT22;13046;49.814;9.918;2022-07-29T16:19:10;21.50;99.90
25050;DHT22;13046;49.814;9.918;2022-07-29T16:21:37;21.50;99.90
25050;DHT22;13046;49.814;9.918;2022-07-29T16:24:04;21.50;99.90
25050;DHT22;13046;49.814;9.918;2022-07-29T16:26:30;21.40;99.90
25050;DHT22;13046;49.814;9.918;2022-07-29T16:28:56;21.40;99.90
25050;DHT22;13046;49.814;9.918;2022-07-29T16:31:21;21.50;99.90
25050;DHT22;13046;49.814;9.918;2022-07-29T16:33:48;21.50;99.90
25050;DHT22;13046;49.814;9.918;2022-07-29T16:36:14;21.50;99.90
25050;DHT22;13046;49.814;9.918;2022-07-29T16:38:40;21.30;99.90
25050;DHT22;13046;49.814;9.918;2022-07-29T16:41:06;21.20;99.90
25050;DHT22;13046;49.814;9.918;2022-07-29T16:43:32;21.10;99.90
25050;DHT22;13046;49.814;9.918;2022-07-29T16:45:58;21.20;99.90
25050;DHT22;13046;49.814;9.918;2022-07-29T16:48:24;21.10;99.90
25050;DHT22;13046;49.814;9.918;2022-07-29T16:50:49;21.00;99.90
25050;DHT22;13046;49.814;9.918;2022-07-29T16:53:15;21.10;99.90
25050;DHT22;13046;49.814;9.918;2022-07-29T16:55:40;21.20;99.90
25050;DHT22;13046;49.814;9.918;2022-07-29T16:58:06;21.20;99.90
25050;DHT22;13046;49.814;9.918;2022-07-29T17:00:32;21.20;99.90
25050;DHT22;13046;49.814;9.918;2022-07-29T17:02:58;21.20;99.90
25050;DHT22;13046;49.814;9.918;2022-07-29T17:05:25;21.20;99.90
25050;DHT22;13046;49.814;9.918;2022-07-29T17:07:51;21.10;99.90
25050;DHT22;13046;49.814;9.918;2022-07-29T17:10:16;21.00;99.90
25050;DHT22;13046;49.814;9.918;2022-07-29T17:12:42;20.90;99.90
25050;DHT22;13046;49.814;9.918;2022-07-29T17:15:10;20.90;99.90
25050;DHT22;13046;49.814;9.918;2022-07-29T17:17:37;20.90;99.90
25050;DHT22;13046;49.814;9.918;2022-07-29T17:20:08;20.80;99.90
25050;DHT22;13046;49.814;9.918;2022-07-29T17:22:35;20.80;99.90
25050;DHT22;13046;49.814;9.918;2022-07-29T17:25:00;20.50;99.90
25050;DHT22;13046;49.814;9.918;2022-07-29T17:27:26;20.50;99.90
25050;DHT22;13046;49.814;9.918;2022-07-29T17:29:52;20.50;99.90
25050;DHT22;13046;49.814;9.918;2022-07-29T17:32:17;20.40;99.90
25050;DHT22;13046;49.814;9.918;2022-07-29T17:34:43;20.40;99.90
25050;DHT22;13046;49.814;9.918;2022-07-29T17:37:10;20.50;99.90
25050;DHT22;13046;49.814;9.918;2022-07-29T17:39:40;20.50;99.90
25050;DHT22;13046;49.814;9.918;2022-07-29T17:42:10;20.50;99.90
25050;DHT22;13046;49.814;9.918;2022-07-29T17:44:37;20.50;99.90
25050;DHT22;13046;49.814;9.918;2022-07-29T17:47:07;20.50;99.90
25050;DHT22;13046;49.814;9.918;2022-07-29T17:49:33;20.50;99.90
25050;DHT22;13046;49.814;9.918;2022-07-29T17:51:58;20.40;99.90
25050;DHT22;13046;49.814;9.918;2022-07-29T17:54:24;20.10;99.90
25050;DHT22;13046;49.814;9.918;2022-07-29T17:56:50;20.10;99.90
25050;DHT22;13046;49.814;9.918;2022-07-29T17:59:16;20.10;99.90
25050;DHT22;13046;49.814;9.918;2022-07-29T18:01:42;20.10;99.90
25050;DHT22;13046;49.814;9.918;2022-07-29T18:04:08;20.10;99.90
25050;DHT22;13046;49.814;9.918;2022-07-29T18:06:34;20.20;99.90
25050;DHT22;13046;49.814;9.918;2022-07-29T18:09:00;20.20;99.90
25050;DHT22;13046;49.814;9.918;2022-07-29T18:11:25;20.10;99.90
25050;DHT22;13046;49.814;9.918;2022-07-29T18:13:51;20.00;99.90
25050;DHT22;13046;49.814;9.918;2022-07-29T18:16:17;20.00;99.90
25050;DHT22;13046;49.814;9.918;2022-07-29T18:18:44;19.90;99.90
25050;DHT22;13046;49.814;9.918;2022-07-29T18:21:10;19.90;99.90
25050;DHT22;13046;49.814;9.918;2022-07-29T18:23:36;19.80;99.90
25050;DHT22;13046;49.814;9.918;2022-07-29T18:26:01;19.80;99.90
25050;DHT22;13046;49.814;9.918;2022-07-29T18:28:27;19.80;99.90
25050;DHT22;13046;49.814;9.918;2022-07-29T18:30:52;19.80;99.90
25050;DHT22;13046;49.814;9.918;2022-07-29T18:33:18;19.90;99.90
25050;DHT22;13046;49.814;9.918;2022-07-29T18:35:48;19.90;99.90
25050;DHT22;13046;49.814;9.918;2022-07-29T18:38:15;19.90;99.90
25050;DHT22;13046;49.814;9.918;2022-07-29T18:40:41;20.00;99.90
25050;DHT22;13046;49.814;9.918;2022-07-29T18:43:07;19.90;99.90
25050;DHT22;13046;49.814;9.918;2022-07-29T18:45:34;19.80;99.90
25050;DHT22;13046;49.814;9.918;2022-07-29T18:48:00;19.80;99.90
25050;DHT22;13046;49.814;9.918;2022-07-29T18:50:26;19.80;99.90
25050;DHT22;13046;49.814;9.918;2022-07-29T18:52:52;19.80;99.90
25050;DHT22;13046;49.814;9.918;2022-07-29T18:55:18;19.80;99.90
25050;DHT22;13046;49.814;9.918;2022-07-29T18:57:43;19.80;99.90
25050;DHT22;13046;49.814;9.918;2022-07-29T19:00:10;19.80;99.90
25050;DHT22;13046;49.814;9.918;2022-07-29T19:02:36;19.80;99.90
25050;DHT22;13046;49.814;9.918;2022-07-29T19:05:08;19.70;99.90
25050;DHT22;13046;49.814;9.918;2022-07-29T19:07:34;19.70;99.90
25050;DHT22;13046;49.814;9.918;2022-07-29T19:10:00;19.70;99.90
25050;DHT22;13046;49.814;9.918;2022-07-29T19:12:26;19.50;99.90
25050;DHT22;13046;49.814;9.918;2022-07-29T19:14:52;19.60;99.90
25050;DHT22;13046;49.814;9.918;2022-07-29T19:17:18;19.60;99.90
25050;DHT22;13046;49.814;9.918;2022-07-29T19:19:43;19.60;99.90
25050;DHT22;13046;49.814;9.918;2022-07-29T19:22:09;19.60;99.90
25050;DHT22;13046;49.814;9.918;2022-07-29T19:24:35;19.70;99.90
25050;DHT22;13046;49.814;9.918;2022-07-29T19:27:01;19.70;99.90
25050;DHT22;13046;49.814;9.918;2022-07-29T19:29:26;19.40;99.90
25050;DHT22;13046;49.814;9.918;2022-07-29T19:31:52;19.50;99.90
25050;DHT22;13046;49.814;9.918;2022-07-29T19:34:18;19.50;99.90
25050;DHT22;13046;49.814;9.918;2022-07-29T19:36:44;19.60;99.90
25050;DHT22;13046;49.814;9.918;2022-07-29T19:39:10;19.50;99.90
25050;DHT22;13046;49.814;9.918;2022-07-29T19:41:36;19.50;99.90
25050;DHT22;13046;49.814;9.918;2022-07-29T19:44:02;19.50;99.90
25050;DHT22;13046;49.814;9.918;2022-07-29T19:46:28;19.40;99.90
25050;DHT22;13046;49.814;9.918;2022-07-29T19:48:54;19.40;99.90
25050;DHT22;13046;49.814;9.918;2022-07-29T19:51:21;19.40;99.90
25050;DHT22;13046;49.814;9.918;2022-07-29T19:53:48;19.40;99.90